createdAt,value
2023-05-18T00:02:08.558Z,2.83
2023-05-18T00:07:10.348Z,2.70
2023-05-18T00:12:13.366Z,4.10
2023-05-18T00:17:15.958Z,2.70
2023-05-18T00:22:20.708Z,2.50
2023-05-18T00:27:23.750Z,2.93
2023-05-18T00:32:25.567Z,2.33
2023-05-18T00:37:27.318Z,3.00
2023-05-18T00:42:30.626Z,3.03
2023-05-18T00:47:32.393Z,2.60
2023-05-18T00:52:34.259Z,2.37
2023-05-18T00:57:38.291Z,3.07
2023-05-18T01:02:45.546Z,2.67
2023-05-18T01:07:47.886Z,3.10
2023-05-18T01:12:53.774Z,3.03
2023-05-18T01:18:04.896Z,3.23
2023-05-18T01:23:14.939Z,2.83
2023-05-18T01:28:18.786Z,3.03
2023-05-18T01:33:21.239Z,3.00
2023-05-18T01:38:23.796Z,2.87
2023-05-18T01:43:28.439Z,3.67
2023-05-18T01:48:30.993Z,3.13
2023-05-18T01:53:35.471Z,2.87
2023-05-18T01:58:38.533Z,3.20
2023-05-18T02:03:40.524Z,2.83
2023-05-18T02:08:42.375Z,3.50
2023-05-18T02:13:45.419Z,2.90
2023-05-18T02:18:47.350Z,3.83
2023-05-18T02:23:49.290Z,3.10
2023-05-18T02:28:52.382Z,3.30
2023-05-18T02:33:54.138Z,3.00
2023-05-18T02:38:57.178Z,3.20
2023-05-18T02:44:01.211Z,3.10
2023-05-18T02:49:02.979Z,3.30
2023-05-18T02:54:04.852Z,4.20
2023-05-18T02:59:10.260Z,3.43
2023-05-18T03:04:16.882Z,4.00
2023-05-18T03:09:23.577Z,3.77
2023-05-18T03:14:29.784Z,3.37
2023-05-18T03:19:32.672Z,4.70
2023-05-18T03:24:40.587Z,3.57
2023-05-18T03:29:47.948Z,3.50
2023-05-18T03:34:51.117Z,3.73
2023-05-18T03:39:55.642Z,4.10
2023-05-18T03:44:58.860Z,3.50
2023-05-18T03:50:00.779Z,3.70
2023-05-18T03:55:02.861Z,3.80
2023-05-18T04:00:12.151Z,4.00
2023-05-18T04:05:19.537Z,3.93
2023-05-18T04:10:22.099Z,4.30
2023-05-18T04:15:25.170Z,4.33
2023-05-18T04:20:28.293Z,4.23
2023-05-18T04:25:30.450Z,4.47
2023-05-18T04:30:35.456Z,4.80
2023-05-18T04:35:37.213Z,4.23
2023-05-18T04:40:42.586Z,4.40
2023-05-18T04:45:46.599Z,4.63
2023-05-18T04:50:48.330Z,4.40
2023-05-18T04:55:50.112Z,4.83
2023-05-18T05:00:53.472Z,5.13
2023-05-18T05:05:55.384Z,5.23
2023-05-18T05:10:57.381Z,4.87
2023-05-18T05:16:00.530Z,4.80
2023-05-18T05:21:02.248Z,4.90
2023-05-18T05:26:04.564Z,4.00
2023-05-18T05:31:09.181Z,4.60
2023-05-18T05:36:11.622Z,3.47
2023-05-18T05:41:13.663Z,3.93
2023-05-18T05:46:17.278Z,3.77
2023-05-18T05:51:19.514Z,3.93
2023-05-18T05:56:21.388Z,3.83
2023-05-18T06:01:24.496Z,4.00
2023-05-18T06:06:26.315Z,5.10
2023-05-18T06:11:28.190Z,4.27
2023-05-18T06:16:31.314Z,4.20
2023-05-18T06:21:34.691Z,4.93
2023-05-18T06:26:37.970Z,4.10
2023-05-18T06:31:51.998Z,3.83
2023-05-18T06:37:07.522Z,3.53
2023-05-18T06:42:09.208Z,3.17
2023-05-18T06:47:17.525Z,3.60
2023-05-18T06:52:19.391Z,3.30
2023-05-18T06:57:21.533Z,3.43
2023-05-18T07:02:24.800Z,3.27
2023-05-18T07:07:26.916Z,2.83
2023-05-18T07:12:29.035Z,3.73
2023-05-18T07:17:32.241Z,2.90
2023-05-18T07:22:34.137Z,3.70
2023-05-18T07:27:35.956Z,3.20
2023-05-18T07:32:39.167Z,3.50
2023-05-18T07:37:41.051Z,3.27
2023-05-18T07:42:42.935Z,2.30
2023-05-18T07:47:46.326Z,2.70
2023-05-18T07:52:48.678Z,2.80
2023-05-18T07:57:50.893Z,2.73
2023-05-18T08:02:54.215Z,2.50
2023-05-18T08:07:56.034Z,2.97
2023-05-18T08:12:57.915Z,2.60
2023-05-18T08:18:01.016Z,2.90
2023-05-18T08:23:02.789Z,3.17
2023-05-18T08:28:04.749Z,3.20
2023-05-18T08:33:08.059Z,3.07
2023-05-18T08:38:09.971Z,3.00
2023-05-18T08:43:13.789Z,2.93
2023-05-18T08:48:17.233Z,3.10
2023-05-18T08:53:19.113Z,3.37
2023-05-18T08:58:22.624Z,3.00
2023-05-18T09:03:25.688Z,3.00
2023-05-18T09:08:28.539Z,2.60
2023-05-18T09:13:30.319Z,3.30
2023-05-18T09:18:33.443Z,2.73
2023-05-18T09:23:35.189Z,3.00
2023-05-18T09:28:38.224Z,2.60
2023-05-18T09:33:41.432Z,3.47
2023-05-18T09:38:45.710Z,3.40
2023-05-18T09:43:47.927Z,3.20
2023-05-18T09:48:52.695Z,3.23
2023-05-18T09:53:55.443Z,5.50
2023-05-18T09:58:57.826Z,2.80
2023-05-18T10:04:03.977Z,3.10
2023-05-18T10:09:06.122Z,3.40
2023-05-18T10:14:08.757Z,3.00
2023-05-18T10:19:11.862Z,3.30
2023-05-18T10:24:13.625Z,2.80
2023-05-18T10:29:15.346Z,2.43
2023-05-18T10:34:20.292Z,3.07
2023-05-18T10:39:22.224Z,2.60
2023-05-18T10:44:24.138Z,2.87
2023-05-18T10:49:27.228Z,2.60
2023-05-18T10:54:28.911Z,2.50
2023-05-18T10:59:30.646Z,3.10
2023-05-18T11:04:33.708Z,2.60
2023-05-18T11:09:35.382Z,3.00
2023-05-18T11:14:37.067Z,3.03
2023-05-18T11:19:40.022Z,2.80
2023-05-18T11:24:42.418Z,2.90
2023-05-18T11:29:45.141Z,2.90
2023-05-18T11:34:50.361Z,2.60
2023-05-18T11:40:00.110Z,2.50
2023-05-18T11:45:06.602Z,3.30
2023-05-18T11:50:11.670Z,2.80
2023-05-18T11:55:14.372Z,2.57
2023-05-18T12:00:17.021Z,3.00
2023-05-18T12:05:20.093Z,3.00
2023-05-18T12:10:21.896Z,2.40
2023-05-18T12:15:24.117Z,4.03
2023-05-18T12:20:31.106Z,3.50
2023-05-18T12:25:33.211Z,5.80
2023-05-18T12:30:35.979Z,4.07
2023-05-18T12:35:40.131Z,3.23
2023-05-18T12:40:48.734Z,4.77
2023-05-18T12:45:50.910Z,5.40
2023-05-18T12:50:55.473Z,3.23
2023-05-18T12:55:58.016Z,2.43
2023-05-18T13:00:59.685Z,2.80
2023-05-18T13:06:06.782Z,2.53
2023-05-18T13:11:14.647Z,2.90
2023-05-18T13:16:16.908Z,2.90
2023-05-18T13:21:19.972Z,2.40
2023-05-18T13:26:22.145Z,3.00
2023-05-18T13:31:23.914Z,3.07
2023-05-18T13:36:29.511Z,2.80
2023-05-18T13:41:31.143Z,2.80
2023-05-18T13:46:32.960Z,2.23
2023-05-18T13:51:36.271Z,3.03
2023-05-18T13:56:37.880Z,2.33
2023-05-18T14:01:42.180Z,2.60
2023-05-18T14:06:45.626Z,2.53
2023-05-18T14:11:47.298Z,2.60
2023-05-18T14:16:49.066Z,2.63
2023-05-18T14:21:52.101Z,2.90
2023-05-18T14:26:53.817Z,2.70
2023-05-18T14:31:55.544Z,2.40
2023-05-18T14:36:58.547Z,2.60
2023-05-18T14:42:00.282Z,2.90
2023-05-18T14:47:02.116Z,2.57
2023-05-18T14:52:05.864Z,2.33
2023-05-18T14:57:07.544Z,3.33
2023-05-18T15:02:09.337Z,2.60
2023-05-18T15:07:12.407Z,2.60
2023-05-18T15:12:14.116Z,2.50
2023-05-18T15:17:15.745Z,2.53
2023-05-18T15:22:18.696Z,2.67
2023-05-18T15:27:20.437Z,2.23
2023-05-18T15:32:22.139Z,2.53
2023-05-18T15:37:25.379Z,2.60
2023-05-18T15:42:27.060Z,2.90
2023-05-18T15:47:29.706Z,2.57
2023-05-18T15:52:32.791Z,2.63
2023-05-18T15:57:34.469Z,2.60
2023-05-18T16:02:37.465Z,2.63
2023-05-18T16:07:42.150Z,2.67
2023-05-18T16:12:43.757Z,2.40
2023-05-18T16:17:45.440Z,2.40
2023-05-18T16:22:49.221Z,2.13
2023-05-18T16:27:51.137Z,2.23
2023-05-18T16:32:52.994Z,2.47
2023-05-18T16:37:56.686Z,2.73
2023-05-18T16:42:58.366Z,2.50
2023-05-18T16:48:02.085Z,2.70
2023-05-18T16:53:05.123Z,2.37
2023-05-18T16:58:06.807Z,3.00
2023-05-18T17:03:08.483Z,2.70
2023-05-18T17:08:11.624Z,2.50
2023-05-18T17:13:13.248Z,2.40
2023-05-18T17:18:14.963Z,2.77
2023-05-18T17:23:18.762Z,2.70
2023-05-18T17:28:20.594Z,2.40
2023-05-18T17:33:22.240Z,2.23
2023-05-18T17:38:25.216Z,2.40
2023-05-18T17:43:26.857Z,2.60
2023-05-18T17:48:28.549Z,2.60
2023-05-18T17:53:31.533Z,2.97
2023-05-18T17:58:33.231Z,2.47
2023-05-18T18:03:34.968Z,3.03
2023-05-18T18:08:38.118Z,3.20
2023-05-18T18:13:39.904Z,3.13
2023-05-18T18:18:41.720Z,3.10
2023-05-18T18:23:44.952Z,3.70
2023-05-18T18:28:46.676Z,4.70
2023-05-18T18:33:50.660Z,3.63
2023-05-18T18:38:53.748Z,3.13
2023-05-18T18:43:57.084Z,3.00
2023-05-18T18:48:58.775Z,2.70
2023-05-18T18:54:01.782Z,2.90
2023-05-18T18:59:03.490Z,3.10
2023-05-18T19:04:05.338Z,2.70
2023-05-18T19:09:08.377Z,3.53
2023-05-18T19:14:10.073Z,3.00
2023-05-18T19:19:11.885Z,3.27
2023-05-18T19:24:15.192Z,3.50
2023-05-18T19:29:16.912Z,4.40
2023-05-18T19:34:18.735Z,3.57
2023-05-18T19:39:21.808Z,3.30
2023-05-18T19:44:23.504Z,3.37
2023-05-18T19:49:25.378Z,3.10
2023-05-18T19:54:28.447Z,3.47
2023-05-18T19:59:30.177Z,3.60
2023-05-18T20:04:33.417Z,2.73
2023-05-18T20:09:36.795Z,3.77
2023-05-18T20:14:39.170Z,5.30
2023-05-18T20:19:45.445Z,3.93
2023-05-18T20:24:48.888Z,3.10
2023-05-18T20:29:50.744Z,3.10
2023-05-18T20:34:52.527Z,2.70
2023-05-18T20:39:57.660Z,2.90
2023-05-18T20:44:59.419Z,3.40
2023-05-18T20:50:02.043Z,2.87
2023-05-18T20:55:05.838Z,3.30
2023-05-18T21:00:08.664Z,3.40
2023-05-18T21:05:10.539Z,3.90
2023-05-18T21:10:13.593Z,4.17
2023-05-18T21:15:15.586Z,3.37
2023-05-18T21:20:17.332Z,3.80
2023-05-18T21:25:20.784Z,3.70
2023-05-18T21:30:22.927Z,3.80
2023-05-18T21:35:24.890Z,4.13
2023-05-18T21:40:27.968Z,3.90
2023-05-18T21:45:29.750Z,4.20
2023-05-18T21:50:34.463Z,4.00
2023-05-18T21:55:38.157Z,4.17
2023-05-18T22:00:39.863Z,4.10
2023-05-18T22:05:44.588Z,4.83
2023-05-18T22:10:47.662Z,4.30
2023-05-18T22:15:49.362Z,4.30
2023-05-18T22:20:51.158Z,4.70
2023-05-18T22:25:54.228Z,3.77
2023-05-18T22:30:55.944Z,4.10
2023-05-18T22:35:57.830Z,4.27
2023-05-18T22:41:00.900Z,4.27
2023-05-18T22:46:03.100Z,3.77
2023-05-18T22:51:06.319Z,4.10
2023-05-18T22:56:09.449Z,4.80
2023-05-18T23:01:11.171Z,3.70
2023-05-18T23:06:13.979Z,4.20
2023-05-18T23:11:18.411Z,4.07
2023-05-18T23:16:20.591Z,4.10
2023-05-18T23:21:22.387Z,4.40
2023-05-18T23:26:25.480Z,3.40
2023-05-18T23:31:27.565Z,4.27
2023-05-18T23:36:30.504Z,4.43
2023-05-18T23:41:33.902Z,3.60
2023-05-18T23:46:36.292Z,4.70
2023-05-18T23:51:37.974Z,3.67
2023-05-18T23:56:41.713Z,3.57
